sensor_id;sensor_type;location;lat;lon;timestamp;P1;durP1;ratioP1;P2;durP2;ratioP2
61915;SDS011;47868;51.326;6.550;2023-05-10T00:02:14;13.90;;;12.60;;
61915;SDS011;47868;51.326;6.550;2023-05-10T00:04:40;15.95;;;14.18;;
61915;SDS011;47868;51.326;6.550;2023-05-10T00:07:06;14.18;;;12.77;;
61915;SDS011;47868;51.326;6.550;2023-05-10T00:09:32;13.55;;;12.25;;
61915;SDS011;47868;51.326;6.550;2023-05-10T00:11:58;14.95;;;13.50;;
61915;SDS011;47868;51.326;6.550;2023-05-10T00:14:24;15.18;;;13.57;;
61915;SDS011;47868;51.326;6.550;2023-05-10T00:16:50;15.68;;;14.05;;
61915;SDS011;47868;51.326;6.550;2023-05-10T00:19:18;14.95;;;13.45;;
61915;SDS011;47868;51.326;6.550;2023-05-10T00:21:44;15.80;;;13.65;;
61915;SDS011;47868;51.326;6.550;2023-05-10T00:24:10;16.23;;;14.73;;
61915;SDS011;47868;51.326;6.550;2023-05-10T00:26:36;18.25;;;16.40;;
61915;SDS011;47868;51.326;6.550;2023-05-10T00:29:02;17.67;;;15.77;;
61915;SDS011;47868;51.326;6.550;2023-05-10T00:31:28;18.73;;;15.90;;
61915;SDS011;47868;51.326;6.550;2023-05-10T00:33:55;16.65;;;14.95;;
61915;SDS011;47868;51.326;6.550;2023-05-10T00:36:21;16.40;;;14.80;;
61915;SDS011;47868;51.326;6.550;2023-05-10T00:38:47;17.10;;;15.38;;
61915;SDS011;47868;51.326;6.550;2023-05-10T00:41:13;16.70;;;14.85;;
61915;SDS011;47868;51.326;6.550;2023-05-10T00:43:39;15.90;;;14.32;;
61915;SDS011;47868;51.326;6.550;2023-05-10T00:46:05;16.95;;;14.98;;
61915;SDS011;47868;51.326;6.550;2023-05-10T00:48:31;16.27;;;14.57;;
61915;SDS011;47868;51.326;6.550;2023-05-10T00:50:57;16.75;;;15.05;;
61915;SDS011;47868;51.326;6.550;2023-05-10T00:53:23;16.30;;;14.57;;
61915;SDS011;47868;51.326;6.550;2023-05-10T00:55:50;14.20;;;12.77;;
61915;SDS011;47868;51.326;6.550;2023-05-10T00:58:16;14.65;;;13.15;;
61915;SDS011;47868;51.326;6.550;2023-05-10T01:00:42;14.80;;;13.27;;
61915;SDS011;47868;51.326;6.550;2023-05-10T01:03:09;15.82;;;13.90;;
61915;SDS011;47868;51.326;6.550;2023-05-10T01:05:36;14.90;;;13.20;;
61915;SDS011;47868;51.326;6.550;2023-05-10T01:08:02;15.20;;;12.02;;
61915;SDS011;47868;51.326;6.550;2023-05-10T01:10:28;13.23;;;11.93;;
61915;SDS011;47868;51.326;6.550;2023-05-10T01:12:54;20.48;;;12.95;;
61915;SDS011;47868;51.326;6.550;2023-05-10T01:15:20;15.73;;;12.63;;
61915;SDS011;47868;51.326;6.550;2023-05-10T01:17:47;15.60;;;13.82;;
61915;SDS011;47868;51.326;6.550;2023-05-10T01:20:13;16.17;;;13.27;;
61915;SDS011;47868;51.326;6.550;2023-05-10T01:37:48;15.35;;;13.77;;
61915;SDS011;47868;51.326;6.550;2023-05-10T01:42:47;15.00;;;13.38;;
61915;SDS011;47868;51.326;6.550;2023-05-10T01:45:24;17.70;;;14.35;;
61915;SDS011;47868;51.326;6.550;2023-05-10T01:47:53;15.05;;;13.10;;
61915;SDS011;47868;51.326;6.550;2023-05-10T01:50:22;14.38;;;12.63;;
61915;SDS011;47868;51.326;6.550;2023-05-10T01:52:53;15.10;;;13.50;;
61915;SDS011;47868;51.326;6.550;2023-05-10T01:55:20;12.77;;;11.57;;
61915;SDS011;47868;51.326;6.550;2023-05-10T01:57:47;15.60;;;12.90;;
61915;SDS011;47868;51.326;6.550;2023-05-10T02:00:16;14.00;;;11.50;;
61915;SDS011;47868;51.326;6.550;2023-05-10T02:02:47;13.73;;;11.82;;
61915;SDS011;47868;51.326;6.550;2023-05-10T02:05:14;12.75;;;11.18;;
61915;SDS011;47868;51.326;6.550;2023-05-10T02:07:40;11.68;;;10.45;;
61915;SDS011;47868;51.326;6.550;2023-05-10T02:10:07;12.95;;;11.00;;
61915;SDS011;47868;51.326;6.550;2023-05-10T02:12:35;11.65;;;10.48;;
61915;SDS011;47868;51.326;6.550;2023-05-10T02:15:02;15.63;;;10.85;;
61915;SDS011;47868;51.326;6.550;2023-05-10T02:17:28;13.00;;;11.70;;
61915;SDS011;47868;51.326;6.550;2023-05-10T02:19:55;12.55;;;11.07;;
61915;SDS011;47868;51.326;6.550;2023-05-10T02:22:22;13.38;;;11.23;;
61915;SDS011;47868;51.326;6.550;2023-05-10T02:24:49;11.55;;;10.23;;
61915;SDS011;47868;51.326;6.550;2023-05-10T02:27:16;13.00;;;11.60;;
61915;SDS011;47868;51.326;6.550;2023-05-10T02:29:43;13.05;;;10.88;;
61915;SDS011;47868;51.326;6.550;2023-05-10T02:32:09;10.80;;;9.68;;
61915;SDS011;47868;51.326;6.550;2023-05-10T02:34:36;10.88;;;9.75;;
61915;SDS011;47868;51.326;6.550;2023-05-10T02:37:02;11.63;;;10.43;;
61915;SDS011;47868;51.326;6.550;2023-05-10T02:39:29;11.25;;;9.82;;
61915;SDS011;47868;51.326;6.550;2023-05-10T02:41:55;12.60;;;9.88;;
61915;SDS011;47868;51.326;6.550;2023-05-10T02:44:21;12.13;;;10.75;;
61915;SDS011;47868;51.326;6.550;2023-05-10T02:46:48;10.98;;;9.93;;
61915;SDS011;47868;51.326;6.550;2023-05-10T02:49:14;10.10;;;9.20;;
61915;SDS011;47868;51.326;6.550;2023-05-10T02:51:42;11.18;;;10.02;;
61915;SDS011;47868;51.326;6.550;2023-05-10T02:54:10;11.02;;;9.93;;
61915;SDS011;47868;51.326;6.550;2023-05-10T02:56:39;13.70;;;11.00;;
61915;SDS011;47868;51.326;6.550;2023-05-10T02:59:06;11.88;;;10.38;;
61915;SDS011;47868;51.326;6.550;2023-05-10T03:01:32;11.32;;;10.13;;
61915;SDS011;47868;51.326;6.550;2023-05-10T03:03:58;11.95;;;10.63;;
61915;SDS011;47868;51.326;6.550;2023-05-10T03:06:25;12.15;;;10.88;;
61915;SDS011;47868;51.326;6.550;2023-05-10T03:08:51;12.90;;;10.63;;
61915;SDS011;47868;51.326;6.550;2023-05-10T03:13:59;14.18;;;11.40;;
61915;SDS011;47868;51.326;6.550;2023-05-10T03:16:34;15.13;;;11.18;;
61915;SDS011;47868;51.326;6.550;2023-05-10T03:19:04;14.75;;;11.90;;
61915;SDS011;47868;51.326;6.550;2023-05-10T03:21:32;14.57;;;11.65;;
61915;SDS011;47868;51.326;6.550;2023-05-10T03:26:26;13.38;;;11.98;;
61915;SDS011;47868;51.326;6.550;2023-05-10T03:28:52;15.50;;;12.35;;
61915;SDS011;47868;51.326;6.550;2023-05-10T03:31:19;14.20;;;12.70;;
61915;SDS011;47868;51.326;6.550;2023-05-10T03:33:48;15.48;;;13.15;;
61915;SDS011;47868;51.326;6.550;2023-05-10T03:36:14;15.50;;;13.18;;
61915;SDS011;47868;51.326;6.550;2023-05-10T03:38:41;17.23;;;13.60;;
61915;SDS011;47868;51.326;6.550;2023-05-10T03:41:07;16.58;;;13.77;;
61915;SDS011;47868;51.326;6.550;2023-05-10T03:43:33;21.23;;;14.32;;
61915;SDS011;47868;51.326;6.550;2023-05-10T03:46:01;20.98;;;13.77;;
61915;SDS011;47868;51.326;6.550;2023-05-10T03:48:27;16.90;;;14.35;;
61915;SDS011;47868;51.326;6.550;2023-05-10T03:50:53;16.90;;;14.27;;
61915;SDS011;47868;51.326;6.550;2023-05-10T03:53:19;19.45;;;15.93;;
61915;SDS011;47868;51.326;6.550;2023-05-10T03:55:45;19.60;;;15.45;;
61915;SDS011;47868;51.326;6.550;2023-05-10T03:58:11;19.77;;;16.23;;
61915;SDS011;47868;51.326;6.550;2023-05-10T04:00:37;20.17;;;17.10;;
61915;SDS011;47868;51.326;6.550;2023-05-10T04:03:08;22.80;;;17.80;;
61915;SDS011;47868;51.326;6.550;2023-05-10T04:05:34;25.90;;;20.45;;
61915;SDS011;47868;51.326;6.550;2023-05-10T04:08:00;25.80;;;19.58;;
61915;SDS011;47868;51.326;6.550;2023-05-10T04:10:26;21.98;;;18.50;;
61915;SDS011;47868;51.326;6.550;2023-05-10T04:12:53;29.33;;;19.25;;
61915;SDS011;47868;51.326;6.550;2023-05-10T04:15:19;23.95;;;19.60;;
61915;SDS011;47868;51.326;6.550;2023-05-10T04:17:45;25.35;;;19.45;;
61915;SDS011;47868;51.326;6.550;2023-05-10T04:20:11;25.52;;;20.75;;
61915;SDS011;47868;51.326;6.550;2023-05-10T04:22:37;25.48;;;21.17;;
61915;SDS011;47868;51.326;6.550;2023-05-10T04:25:03;28.58;;;21.80;;
61915;SDS011;47868;51.326;6.550;2023-05-10T04:27:29;30.50;;;22.52;;
61915;SDS011;47868;51.326;6.550;2023-05-10T04:29:56;32.80;;;23.40;;
61915;SDS011;47868;51.326;6.550;2023-05-10T04:32:22;34.67;;;23.27;;
61915;SDS011;47868;51.326;6.550;2023-05-10T04:34:48;28.65;;;22.13;;
61915;SDS011;47868;51.326;6.550;2023-05-10T04:37:14;28.33;;;22.13;;
61915;SDS011;47868;51.326;6.550;2023-05-10T04:39:40;27.75;;;22.40;;
61915;SDS011;47868;51.326;6.550;2023-05-10T04:42:06;30.30;;;23.80;;
61915;SDS011;47868;51.326;6.550;2023-05-10T04:44:32;29.10;;;23.65;;
61915;SDS011;47868;51.326;6.550;2023-05-10T04:46:58;32.20;;;22.80;;
61915;SDS011;47868;51.326;6.550;2023-05-10T04:49:24;31.52;;;24.38;;
61915;SDS011;47868;51.326;6.550;2023-05-10T04:51:50;31.23;;;23.85;;
61915;SDS011;47868;51.326;6.550;2023-05-10T04:54:16;30.73;;;23.48;;
61915;SDS011;47868;51.326;6.550;2023-05-10T04:56:42;31.63;;;25.00;;
61915;SDS011;47868;51.326;6.550;2023-05-10T04:59:08;32.15;;;24.92;;
61915;SDS011;47868;51.326;6.550;2023-05-10T05:01:34;33.22;;;25.42;;
61915;SDS011;47868;51.326;6.550;2023-05-10T05:04:00;30.95;;;24.58;;
61915;SDS011;47868;51.326;6.550;2023-05-10T05:06:26;36.60;;;25.05;;
61915;SDS011;47868;51.326;6.550;2023-05-10T05:08:52;33.28;;;25.25;;
61915;SDS011;47868;51.326;6.550;2023-05-10T05:11:18;30.88;;;24.77;;
61915;SDS011;47868;51.326;6.550;2023-05-10T05:13:45;35.55;;;25.77;;
61915;SDS011;47868;51.326;6.550;2023-05-10T05:16:11;35.30;;;25.55;;
61915;SDS011;47868;51.326;6.550;2023-05-10T05:18:38;33.50;;;26.30;;
61915;SDS011;47868;51.326;6.550;2023-05-10T05:21:12;37.45;;;27.17;;
61915;SDS011;47868;51.326;6.550;2023-05-10T05:23:39;31.48;;;24.35;;
61915;SDS011;47868;51.326;6.550;2023-05-10T05:26:05;36.28;;;26.40;;
61915;SDS011;47868;51.326;6.550;2023-05-10T05:28:30;33.90;;;25.75;;
61915;SDS011;47868;51.326;6.550;2023-05-10T05:30:58;34.45;;;25.83;;
61915;SDS011;47868;51.326;6.550;2023-05-10T05:33:25;38.78;;;26.05;;
61915;SDS011;47868;51.326;6.550;2023-05-10T05:35:51;36.67;;;26.10;;
61915;SDS011;47868;51.326;6.550;2023-05-10T05:38:17;36.03;;;25.80;;
61915;SDS011;47868;51.326;6.550;2023-05-10T05:40:43;38.30;;;25.92;;
61915;SDS011;47868;51.326;6.550;2023-05-10T05:43:10;35.40;;;26.40;;
61915;SDS011;47868;51.326;6.550;2023-05-10T05:45:36;43.38;;;28.50;;
61915;SDS011;47868;51.326;6.550;2023-05-10T05:48:02;41.03;;;27.83;;
61915;SDS011;47868;51.326;6.550;2023-05-10T05:50:28;46.08;;;27.67;;
61915;SDS011;47868;51.326;6.550;2023-05-10T05:52:54;47.05;;;27.98;;
61915;SDS011;47868;51.326;6.550;2023-05-10T05:55:21;44.95;;;28.67;;
61915;SDS011;47868;51.326;6.550;2023-05-10T05:57:47;50.47;;;28.27;;
61915;SDS011;47868;51.326;6.550;2023-05-10T06:00:13;48.08;;;28.95;;
61915;SDS011;47868;51.326;6.550;2023-05-10T06:02:39;44.85;;;29.17;;
61915;SDS011;47868;51.326;6.550;2023-05-10T06:05:05;54.97;;;30.52;;
61915;SDS011;47868;51.326;6.550;2023-05-10T06:07:31;46.70;;;28.30;;
61915;SDS011;47868;51.326;6.550;2023-05-10T06:09:57;49.35;;;29.38;;
61915;SDS011;47868;51.326;6.550;2023-05-10T06:12:23;51.80;;;31.00;;
61915;SDS011;47868;51.326;6.550;2023-05-10T06:14:49;51.17;;;30.25;;
61915;SDS011;47868;51.326;6.550;2023-05-10T06:17:15;49.33;;;29.00;;
61915;SDS011;47868;51.326;6.550;2023-05-10T06:19:41;48.47;;;28.23;;
61915;SDS011;47868;51.326;6.550;2023-05-10T06:22:07;51.50;;;29.08;;
61915;SDS011;47868;51.326;6.550;2023-05-10T06:24:33;49.13;;;30.02;;
61915;SDS011;47868;51.326;6.550;2023-05-10T06:26:59;48.65;;;29.33;;
61915;SDS011;47868;51.326;6.550;2023-05-10T06:29:26;49.65;;;29.30;;
61915;SDS011;47868;51.326;6.550;2023-05-10T06:31:52;51.95;;;29.15;;
61915;SDS011;47868;51.326;6.550;2023-05-10T06:34:19;51.13;;;28.35;;
61915;SDS011;47868;51.326;6.550;2023-05-10T06:36:45;57.58;;;30.35;;
61915;SDS011;47868;51.326;6.550;2023-05-10T06:39:11;46.80;;;27.55;;
61915;SDS011;47868;51.326;6.550;2023-05-10T06:41:37;50.45;;;28.42;;
61915;SDS011;47868;51.326;6.550;2023-05-10T06:44:03;48.72;;;27.45;;
61915;SDS011;47868;51.326;6.550;2023-05-10T06:46:30;49.92;;;28.38;;
61915;SDS011;47868;51.326;6.550;2023-05-10T06:48:56;46.70;;;27.05;;
61915;SDS011;47868;51.326;6.550;2023-05-10T06:51:22;46.63;;;28.38;;
61915;SDS011;47868;51.326;6.550;2023-05-10T06:53:48;45.35;;;26.48;;
61915;SDS011;47868;51.326;6.550;2023-05-10T06:56:14;40.80;;;25.67;;
61915;SDS011;47868;51.326;6.550;2023-05-10T06:58:40;41.70;;;26.23;;
61915;SDS011;47868;51.326;6.550;2023-05-10T07:01:05;38.58;;;24.50;;
61915;SDS011;47868;51.326;6.550;2023-05-10T07:03:31;39.30;;;25.50;;
61915;SDS011;47868;51.326;6.550;2023-05-10T07:06:04;38.72;;;25.27;;
61915;SDS011;47868;51.326;6.550;2023-05-10T07:08:31;38.55;;;24.90;;
61915;SDS011;47868;51.326;6.550;2023-05-10T07:11:01;39.72;;;23.98;;
61915;SDS011;47868;51.326;6.550;2023-05-10T07:13:28;42.17;;;25.88;;
61915;SDS011;47868;51.326;6.550;2023-05-10T07:15:54;38.22;;;25.55;;
61915;SDS011;47868;51.326;6.550;2023-05-10T07:18:20;44.15;;;27.52;;
61915;SDS011;47868;51.326;6.550;2023-05-10T07:20:46;43.70;;;27.10;;
61915;SDS011;47868;51.326;6.550;2023-05-10T07:23:12;44.65;;;29.00;;
61915;SDS011;47868;51.326;6.550;2023-05-10T07:25:38;47.38;;;28.27;;
61915;SDS011;47868;51.326;6.550;2023-05-10T07:28:04;47.75;;;29.20;;
61915;SDS011;47868;51.326;6.550;2023-05-10T07:30:30;44.13;;;28.67;;
61915;SDS011;47868;51.326;6.550;2023-05-10T07:32:56;46.38;;;30.65;;
61915;SDS011;47868;51.326;6.550;2023-05-10T07:35:22;50.75;;;32.17;;
61915;SDS011;47868;51.326;6.550;2023-05-10T07:37:48;43.08;;;30.27;;
61915;SDS011;47868;51.326;6.550;2023-05-10T07:40:14;49.17;;;31.50;;
61915;SDS011;47868;51.326;6.550;2023-05-10T07:42:40;47.50;;;30.23;;
61915;SDS011;47868;51.326;6.550;2023-05-10T07:45:06;46.33;;;31.15;;
61915;SDS011;47868;51.326;6.550;2023-05-10T07:47:32;45.80;;;31.30;;
61915;SDS011;47868;51.326;6.550;2023-05-10T07:49:58;47.58;;;32.40;;
61915;SDS011;47868;51.326;6.550;2023-05-10T07:52:24;47.08;;;31.42;;
61915;SDS011;47868;51.326;6.550;2023-05-10T07:54:50;47.15;;;30.92;;
61915;SDS011;47868;51.326;6.550;2023-05-10T07:57:17;46.28;;;30.90;;
61915;SDS011;47868;51.326;6.550;2023-05-10T07:59:43;43.50;;;30.73;;
61915;SDS011;47868;51.326;6.550;2023-05-10T08:02:10;45.75;;;30.48;;
61915;SDS011;47868;51.326;6.550;2023-05-10T08:04:36;48.67;;;31.95;;
61915;SDS011;47868;51.326;6.550;2023-05-10T08:07:02;46.95;;;31.02;;
61915;SDS011;47868;51.326;6.550;2023-05-10T08:09:28;43.58;;;32.13;;
61915;SDS011;47868;51.326;6.550;2023-05-10T08:11:54;48.20;;;31.20;;
61915;SDS011;47868;51.326;6.550;2023-05-10T08:14:20;49.72;;;29.83;;
61915;SDS011;47868;51.326;6.550;2023-05-10T08:16:46;40.58;;;28.65;;
61915;SDS011;47868;51.326;6.550;2023-05-10T08:19:12;41.97;;;28.98;;
61915;SDS011;47868;51.326;6.550;2023-05-10T08:21:38;40.60;;;28.65;;
61915;SDS011;47868;51.326;6.550;2023-05-10T08:24:07;38.85;;;28.25;;
61915;SDS011;47868;51.326;6.550;2023-05-10T08:26:33;35.22;;;27.30;;
61915;SDS011;47868;51.326;6.550;2023-05-10T08:28:59;38.05;;;28.35;;
61915;SDS011;47868;51.326;6.550;2023-05-10T08:31:25;39.33;;;26.48;;
61915;SDS011;47868;51.326;6.550;2023-05-10T08:33:51;36.47;;;26.02;;
61915;SDS011;47868;51.326;6.550;2023-05-10T08:36:17;32.33;;;24.48;;
61915;SDS011;47868;51.326;6.550;2023-05-10T08:38:46;34.42;;;22.92;;
61915;SDS011;47868;51.326;6.550;2023-05-10T08:41:13;32.38;;;21.90;;
61915;SDS011;47868;51.326;6.550;2023-05-10T08:43:39;32.85;;;22.92;;
61915;SDS011;47868;51.326;6.550;2023-05-10T08:46:10;31.20;;;23.70;;
61915;SDS011;47868;51.326;6.550;2023-05-10T08:48:37;29.73;;;21.85;;
61915;SDS011;47868;51.326;6.550;2023-05-10T08:51:03;28.45;;;22.65;;
61915;SDS011;47868;51.326;6.550;2023-05-10T08:53:30;25.85;;;20.40;;
61915;SDS011;47868;51.326;6.550;2023-05-10T08:55:56;25.83;;;20.20;;
61915;SDS011;47868;51.326;6.550;2023-05-10T08:58:22;24.58;;;18.90;;
61915;SDS011;47868;51.326;6.550;2023-05-10T09:00:49;24.95;;;20.63;;
61915;SDS011;47868;51.326;6.550;2023-05-10T09:03:18;26.45;;;20.38;;
61915;SDS011;47868;51.326;6.550;2023-05-10T09:05:44;24.10;;;19.05;;
61915;SDS011;47868;51.326;6.550;2023-05-10T09:08:10;23.73;;;18.90;;
61915;SDS011;47868;51.326;6.550;2023-05-10T09:10:38;24.95;;;18.73;;
61915;SDS011;47868;51.326;6.550;2023-05-10T09:13:06;23.02;;;19.20;;
61915;SDS011;47868;51.326;6.550;2023-05-10T09:15:33;24.77;;;18.83;;
61915;SDS011;47868;51.326;6.550;2023-05-10T09:17:59;22.85;;;18.60;;
61915;SDS011;47868;51.326;6.550;2023-05-10T09:20:27;27.30;;;20.27;;
61915;SDS011;47868;51.326;6.550;2023-05-10T09:22:53;27.33;;;19.77;;
61915;SDS011;47868;51.326;6.550;2023-05-10T09:25:19;23.55;;;18.63;;
61915;SDS011;47868;51.326;6.550;2023-05-10T09:27:46;29.33;;;18.35;;
61915;SDS011;47868;51.326;6.550;2023-05-10T09:30:16;24.73;;;19.52;;
61915;SDS011;47868;51.326;6.550;2023-05-10T09:32:43;26.45;;;18.45;;
61915;SDS011;47868;51.326;6.550;2023-05-10T09:35:10;25.17;;;19.98;;
61915;SDS011;47868;51.326;6.550;2023-05-10T09:37:38;25.23;;;18.23;;
61915;SDS011;47868;51.326;6.550;2023-05-10T09:40:06;23.95;;;19.42;;
61915;SDS011;47868;51.326;6.550;2023-05-10T09:42:33;25.25;;;17.98;;
61915;SDS011;47868;51.326;6.550;2023-05-10T09:45:03;28.58;;;19.23;;
61915;SDS011;47868;51.326;6.550;2023-05-10T09:47:31;28.27;;;19.17;;
61915;SDS011;47868;51.326;6.550;2023-05-10T09:49:57;22.60;;;18.55;;
61915;SDS011;47868;51.326;6.550;2023-05-10T09:52:28;22.77;;;18.40;;
61915;SDS011;47868;51.326;6.550;2023-05-10T09:54:54;25.85;;;17.30;;
61915;SDS011;47868;51.326;6.550;2023-05-10T09:57:20;24.80;;;18.27;;
61915;SDS011;47868;51.326;6.550;2023-05-10T09:59:47;24.40;;;18.02;;
61915;SDS011;47868;51.326;6.550;2023-05-10T10:02:13;21.98;;;17.35;;
61915;SDS011;47868;51.326;6.550;2023-05-10T10:04:39;24.65;;;17.88;;
61915;SDS011;47868;51.326;6.550;2023-05-10T10:07:05;23.88;;;16.77;;
61915;SDS011;47868;51.326;6.550;2023-05-10T10:09:32;23.08;;;16.92;;
61915;SDS011;47868;51.326;6.550;2023-05-10T10:11:59;23.77;;;16.58;;
61915;SDS011;47868;51.326;6.550;2023-05-10T10:14:25;22.15;;;16.25;;
61915;SDS011;47868;51.326;6.550;2023-05-10T10:16:51;22.15;;;16.13;;
61915;SDS011;47868;51.326;6.550;2023-05-10T10:19:18;24.08;;;16.45;;
61915;SDS011;47868;51.326;6.550;2023-05-10T10:21:45;21.52;;;14.93;;
61915;SDS011;47868;51.326;6.550;2023-05-10T10:24:11;20.80;;;15.45;;
61915;SDS011;47868;51.326;6.550;2023-05-10T10:26:37;21.52;;;15.02;;
61915;SDS011;47868;51.326;6.550;2023-05-10T10:31:36;24.38;;;15.30;;
61915;SDS011;47868;51.326;6.550;2023-05-10T10:36:52;16.80;;;14.52;;
61915;SDS011;47868;51.326;6.550;2023-05-10T10:39:18;19.70;;;15.32;;
61915;SDS011;47868;51.326;6.550;2023-05-10T10:41:49;20.30;;;15.00;;
61915;SDS011;47868;51.326;6.550;2023-05-10T10:49:26;21.70;;;17.40;;
61915;SDS011;47868;51.326;6.550;2023-05-10T10:54:37;20.10;;;17.05;;
61915;SDS011;47868;51.326;6.550;2023-05-10T10:57:12;22.35;;;16.25;;
61915;SDS011;47868;51.326;6.550;2023-05-10T10:59:42;18.83;;;15.10;;
61915;SDS011;47868;51.326;6.550;2023-05-10T11:04:57;21.25;;;14.45;;
61915;SDS011;47868;51.326;6.550;2023-05-10T11:07:23;22.65;;;15.98;;
61915;SDS011;47868;51.326;6.550;2023-05-10T11:09:49;22.20;;;16.90;;
61915;SDS011;47868;51.326;6.550;2023-05-10T11:12:15;20.58;;;15.45;;
61915;SDS011;47868;51.326;6.550;2023-05-10T11:14:41;20.65;;;16.27;;
61915;SDS011;47868;51.326;6.550;2023-05-10T11:20:08;17.38;;;15.50;;
61915;SDS011;47868;51.326;6.550;2023-05-10T11:22:50;20.80;;;15.93;;
61915;SDS011;47868;51.326;6.550;2023-05-10T11:25:17;18.65;;;14.30;;
61915;SDS011;47868;51.326;6.550;2023-05-10T11:27:43;22.05;;;16.55;;
61915;SDS011;47868;51.326;6.550;2023-05-10T11:30:10;17.85;;;16.05;;
61915;SDS011;47868;51.326;6.550;2023-05-10T11:32:40;18.55;;;16.65;;
61915;SDS011;47868;51.326;6.550;2023-05-10T11:35:12;19.95;;;16.65;;
61915;SDS011;47868;51.326;6.550;2023-05-10T11:37:38;21.40;;;16.40;;
61915;SDS011;47868;51.326;6.550;2023-05-10T11:40:07;19.90;;;16.13;;
61915;SDS011;47868;51.326;6.550;2023-05-10T11:42:35;21.23;;;16.40;;
61915;SDS011;47868;51.326;6.550;2023-05-10T11:45:01;20.80;;;14.82;;
61915;SDS011;47868;51.326;6.550;2023-05-10T11:47:27;19.35;;;16.02;;
61915;SDS011;47868;51.326;6.550;2023-05-10T11:49:54;20.30;;;15.85;;
61915;SDS011;47868;51.326;6.550;2023-05-10T11:52:20;21.45;;;16.05;;
61915;SDS011;47868;51.326;6.550;2023-05-10T11:54:55;16.25;;;13.98;;
61915;SDS011;47868;51.326;6.550;2023-05-10T11:57:25;15.35;;;13.88;;
61915;SDS011;47868;51.326;6.550;2023-05-10T11:59:56;16.15;;;13.95;;
61915;SDS011;47868;51.326;6.550;2023-05-10T12:02:22;16.98;;;13.40;;
61915;SDS011;47868;51.326;6.550;2023-05-10T12:04:48;12.07;;;10.80;;
61915;SDS011;47868;51.326;6.550;2023-05-10T12:07:14;13.30;;;11.90;;
61915;SDS011;47868;51.326;6.550;2023-05-10T12:09:43;16.77;;;13.05;;
61915;SDS011;47868;51.326;6.550;2023-05-10T12:12:16;13.90;;;11.98;;
61915;SDS011;47868;51.326;6.550;2023-05-10T12:14:42;14.05;;;12.63;;
61915;SDS011;47868;51.326;6.550;2023-05-10T12:17:11;13.65;;;12.18;;
61915;SDS011;47868;51.326;6.550;2023-05-10T12:19:38;14.85;;;12.45;;
61915;SDS011;47868;51.326;6.550;2023-05-10T12:22:05;17.33;;;11.88;;
61915;SDS011;47868;51.326;6.550;2023-05-10T12:24:33;13.68;;;12.20;;
61915;SDS011;47868;51.326;6.550;2023-05-10T12:26:59;13.77;;;12.48;;
61915;SDS011;47868;51.326;6.550;2023-05-10T12:29:25;14.75;;;13.32;;
61915;SDS011;47868;51.326;6.550;2023-05-10T12:34:27;15.20;;;13.20;;
61915;SDS011;47868;51.326;6.550;2023-05-10T12:36:55;13.57;;;11.75;;
61915;SDS011;47868;51.326;6.550;2023-05-10T12:39:21;17.75;;;12.73;;
61915;SDS011;47868;51.326;6.550;2023-05-10T12:41:47;16.83;;;13.95;;
61915;SDS011;47868;51.326;6.550;2023-05-10T12:44:13;14.57;;;13.07;;
61915;SDS011;47868;51.326;6.550;2023-05-10T12:46:39;14.40;;;13.00;;
61915;SDS011;47868;51.326;6.550;2023-05-10T12:49:05;15.00;;;12.90;;
61915;SDS011;47868;51.326;6.550;2023-05-10T12:51:31;16.35;;;14.73;;
61915;SDS011;47868;51.326;6.550;2023-05-10T12:53:57;16.88;;;15.07;;
61915;SDS011;47868;51.326;6.550;2023-05-10T12:56:23;16.33;;;13.80;;
61915;SDS011;47868;51.326;6.550;2023-05-10T12:58:49;15.50;;;13.82;;
61915;SDS011;47868;51.326;6.550;2023-05-10T13:01:15;14.73;;;13.30;;
61915;SDS011;47868;51.326;6.550;2023-05-10T13:03:41;16.73;;;15.02;;
61915;SDS011;47868;51.326;6.550;2023-05-10T13:06:10;17.23;;;14.68;;
61915;SDS011;47868;51.326;6.550;2023-05-10T13:08:38;19.17;;;16.23;;
61915;SDS011;47868;51.326;6.550;2023-05-10T13:11:05;17.95;;;16.05;;
61915;SDS011;47868;51.326;6.550;2023-05-10T13:13:31;19.20;;;17.08;;
61915;SDS011;47868;51.326;6.550;2023-05-10T13:15:57;21.65;;;17.02;;
61915;SDS011;47868;51.326;6.550;2023-05-10T13:18:23;21.55;;;19.13;;
61915;SDS011;47868;51.326;6.550;2023-05-10T13:20:51;20.25;;;17.88;;
61915;SDS011;47868;51.326;6.550;2023-05-10T13:23:16;20.63;;;18.23;;
61915;SDS011;47868;51.326;6.550;2023-05-10T13:25:42;20.67;;;18.42;;
61915;SDS011;47868;51.326;6.550;2023-05-10T13:28:08;21.77;;;19.08;;
61915;SDS011;47868;51.326;6.550;2023-05-10T13:30:34;20.45;;;18.15;;
61915;SDS011;47868;51.326;6.550;2023-05-10T13:33:00;21.05;;;18.85;;
61915;SDS011;47868;51.326;6.550;2023-05-10T13:35:26;25.60;;;18.30;;
61915;SDS011;47868;51.326;6.550;2023-05-10T13:37:52;19.35;;;17.45;;
61915;SDS011;47868;51.326;6.550;2023-05-10T13:40:21;20.63;;;18.40;;
61915;SDS011;47868;51.326;6.550;2023-05-10T13:42:47;19.83;;;17.83;;
61915;SDS011;47868;51.326;6.550;2023-05-10T13:45:13;19.95;;;17.88;;
61915;SDS011;47868;51.326;6.550;2023-05-10T13:47:39;19.45;;;16.60;;
61915;SDS011;47868;51.326;6.550;2023-05-10T13:50:06;18.13;;;15.60;;
61915;SDS011;47868;51.326;6.550;2023-05-10T13:52:32;16.48;;;14.80;;
61915;SDS011;47868;51.326;6.550;2023-05-10T13:54:58;18.88;;;15.68;;
61915;SDS011;47868;51.326;6.550;2023-05-10T13:57:24;18.52;;;15.98;;
61915;SDS011;47868;51.326;6.550;2023-05-10T13:59:51;17.73;;;15.80;;
61915;SDS011;47868;51.326;6.550;2023-05-10T14:02:17;17.55;;;15.85;;
61915;SDS011;47868;51.326;6.550;2023-05-10T14:04:43;18.40;;;16.40;;
61915;SDS011;47868;51.326;6.550;2023-05-10T14:07:09;17.05;;;15.35;;
61915;SDS011;47868;51.326;6.550;2023-05-10T14:09:35;19.77;;;16.48;;
61915;SDS011;47868;51.326;6.550;2023-05-10T14:12:01;18.33;;;16.42;;
61915;SDS011;47868;51.326;6.550;2023-05-10T14:14:27;16.90;;;15.10;;
61915;SDS011;47868;51.326;6.550;2023-05-10T14:16:54;15.02;;;13.43;;
61915;SDS011;47868;51.326;6.550;2023-05-10T14:19:20;15.32;;;13.65;;
61915;SDS011;47868;51.326;6.550;2023-05-10T14:21:46;18.88;;;13.38;;
61915;SDS011;47868;51.326;6.550;2023-05-10T14:24:12;14.65;;;13.15;;
61915;SDS011;47868;51.326;6.550;2023-05-10T14:26:38;13.68;;;11.88;;
61915;SDS011;47868;51.326;6.550;2023-05-10T14:29:04;16.92;;;11.90;;
61915;SDS011;47868;51.326;6.550;2023-05-10T14:31:30;13.88;;;12.43;;
61915;SDS011;47868;51.326;6.550;2023-05-10T14:33:56;14.30;;;11.45;;
61915;SDS011;47868;51.326;6.550;2023-05-10T14:36:22;17.23;;;12.02;;
61915;SDS011;47868;51.326;6.550;2023-05-10T14:38:48;13.63;;;12.23;;
61915;SDS011;47868;51.326;6.550;2023-05-10T14:41:15;14.07;;;11.55;;
61915;SDS011;47868;51.326;6.550;2023-05-10T14:43:42;13.13;;;11.75;;
61915;SDS011;47868;51.326;6.550;2023-05-10T14:46:08;13.23;;;11.82;;
61915;SDS011;47868;51.326;6.550;2023-05-10T14:48:34;13.30;;;11.90;;
61915;SDS011;47868;51.326;6.550;2023-05-10T14:51:00;13.23;;;11.05;;
61915;SDS011;47868;51.326;6.550;2023-05-10T14:53:26;12.93;;;11.65;;
61915;SDS011;47868;51.326;6.550;2023-05-10T14:55:52;13.77;;;12.30;;
61915;SDS011;47868;51.326;6.550;2023-05-10T14:58:18;11.82;;;10.60;;
61915;SDS011;47868;51.326;6.550;2023-05-10T15:00:44;13.73;;;9.88;;
61915;SDS011;47868;51.326;6.550;2023-05-10T15:03:11;12.23;;;10.00;;